createdAt,value
2022-11-15T00:02:44.963Z,95422.09
2022-11-15T00:05:35.882Z,95418.22
2022-11-15T00:08:23.071Z,95422.28
2022-11-15T00:11:13.417Z,95419.28
2022-11-15T00:14:03.812Z,95412.56
2022-11-15T00:16:51.263Z,95412.25
2022-11-15T00:19:38.360Z,95406.97
2022-11-15T00:22:25.838Z,95392.47
2022-11-15T00:25:12.865Z,95398.41
2022-11-15T00:28:01.379Z,95402.31
2022-11-15T00:30:48.531Z,95394.69
2022-11-15T00:33:36.275Z,95405.75
2022-11-15T00:36:23.539Z,95399.22
2022-11-15T00:39:10.683Z,95411.38
2022-11-15T00:41:58.140Z,95409.66
2022-11-15T00:44:45.389Z,95411.69
2022-11-15T00:47:33.628Z,95405.19
2022-11-15T00:50:20.868Z,95412.66
2022-11-15T00:53:08.244Z,95403.28
2022-11-15T00:55:55.655Z,95403.94
2022-11-15T00:58:42.899Z,95397.84
2022-11-15T01:01:31.252Z,95405.03
2022-11-15T01:04:18.566Z,95393.66
2022-11-15T01:07:06.048Z,95385.41
2022-11-15T01:09:53.537Z,95394.75
2022-11-15T01:12:40.832Z,95402.84
2022-11-15T01:15:27.960Z,95400.81
2022-11-15T01:18:14.765Z,95404.41
2022-11-15T01:21:01.712Z,95397.25
2022-11-15T01:23:49.155Z,95400.38
2022-11-15T01:26:36.143Z,95395.38
2022-11-15T01:29:23.393Z,95391.81
2022-11-15T01:32:10.900Z,95405.38
2022-11-15T01:34:57.959Z,95381.22
2022-11-15T01:37:44.998Z,95402.56
2022-11-15T01:40:32.120Z,95398.97
2022-11-15T01:43:36.758Z,95393.63
2022-11-15T01:46:31.733Z,95387.72
2022-11-15T01:49:22.745Z,95377.56
2022-11-15T01:52:13.519Z,95381.31
2022-11-15T01:55:15.518Z,95378.66
2022-11-15T01:58:06.170Z,95383.31
2022-11-15T02:00:54.945Z,95380.69
2022-11-15T02:03:58.371Z,95380.50
2022-11-15T02:06:48.418Z,95376.78
2022-11-15T02:09:38.405Z,95375.03
2022-11-15T02:12:25.667Z,95367.84
2022-11-15T02:15:13.606Z,95373.78
2022-11-15T02:18:09.240Z,95375.00
2022-11-15T02:21:11.694Z,95374.19
2022-11-15T02:24:13.396Z,95366.72
2022-11-15T02:27:19.042Z,95370.28
2022-11-15T02:30:35.417Z,95367.00
2022-11-15T02:33:37.578Z,95357.47
2022-11-15T02:36:34.422Z,95361.84
2022-11-15T02:39:53.558Z,95357.78
2022-11-15T02:43:10.143Z,95365.41
2022-11-15T02:46:00.570Z,95367.56
2022-11-15T02:48:48.612Z,95355.53
2022-11-15T02:51:36.001Z,95361.31
2022-11-15T02:54:30.813Z,95349.28
2022-11-15T02:57:24.607Z,95344.41
2022-11-15T03:00:17.889Z,95343.47
2022-11-15T03:03:22.331Z,95341.41
2022-11-15T03:06:39.336Z,95342.47
2022-11-15T03:09:42.406Z,95340.50
2022-11-15T03:12:53.450Z,95324.41
2022-11-15T03:16:05.764Z,95327.00
2022-11-15T03:19:00.162Z,95316.31
2022-11-15T03:21:49.870Z,95319.69
2022-11-15T03:24:39.810Z,95300.75
2022-11-15T03:27:36.962Z,95308.25
2022-11-15T03:30:23.985Z,95306.75
2022-11-15T03:33:13.626Z,95314.38
2022-11-15T03:36:01.152Z,95313.63
2022-11-15T03:38:48.526Z,95314.63
2022-11-15T03:41:45.616Z,95310.91
2022-11-15T03:44:47.768Z,95317.78
2022-11-15T03:47:41.598Z,95316.03
2022-11-15T03:50:29.467Z,95315.25
2022-11-15T03:53:17.178Z,95304.63
2022-11-15T03:56:04.428Z,95294.59
2022-11-15T03:58:51.581Z,95299.03
2022-11-15T04:01:39.034Z,95293.06
2022-11-15T04:04:26.941Z,95287.28
2022-11-15T04:07:14.411Z,95291.16
2022-11-15T04:10:05.147Z,95273.09
2022-11-15T04:12:52.283Z,95287.06
2022-11-15T04:15:39.721Z,95277.50
2022-11-15T04:18:26.800Z,95278.03
2022-11-15T04:21:32.983Z,95266.63
2022-11-15T04:24:20.211Z,95267.63
2022-11-15T04:27:07.635Z,95267.94
2022-11-15T04:29:54.897Z,95264.72
2022-11-15T04:32:41.845Z,95268.50
2022-11-15T04:35:29.704Z,95264.28
2022-11-15T04:38:16.757Z,95251.75
2022-11-15T04:41:03.833Z,95267.38
2022-11-15T04:43:50.767Z,95264.59
2022-11-15T04:46:37.944Z,95254.03
2022-11-15T04:49:24.972Z,95252.59
2022-11-15T04:52:12.138Z,95251.63
2022-11-15T04:55:03.614Z,95250.84
2022-11-15T04:58:01.329Z,95239.47
2022-11-15T05:00:49.706Z,95244.25
2022-11-15T05:03:55.383Z,95235.28
2022-11-15T05:06:42.595Z,95233.38
2022-11-15T05:09:29.641Z,95228.53
2022-11-15T05:12:16.830Z,95232.75
2022-11-15T05:15:04.452Z,95222.88
2022-11-15T05:17:51.736Z,95218.66
2022-11-15T05:20:38.798Z,95216.81
2022-11-15T05:23:25.956Z,95216.00
2022-11-15T05:26:13.665Z,95219.91
2022-11-15T05:29:01.363Z,95215.03
2022-11-15T05:31:48.284Z,95212.94
2022-11-15T05:34:35.577Z,95203.63
2022-11-15T05:37:22.843Z,95197.69
2022-11-15T05:40:10.586Z,95198.69
2022-11-15T05:42:58.585Z,95195.38
2022-11-15T05:45:45.908Z,95207.53
2022-11-15T05:48:34.369Z,95199.56
2022-11-15T05:51:24.567Z,95195.47
2022-11-15T05:54:13.143Z,95190.81
2022-11-15T05:57:01.484Z,95187.16
2022-11-15T05:59:48.847Z,95180.72
2022-11-15T06:02:37.014Z,95168.88
2022-11-15T06:05:24.483Z,95170.31
2022-11-15T06:08:11.547Z,95163.34
2022-11-15T06:11:04.576Z,95169.56
2022-11-15T06:13:52.034Z,95167.00
2022-11-15T06:16:39.382Z,95161.03
2022-11-15T06:19:26.556Z,95168.88
2022-11-15T06:22:13.689Z,95164.13
2022-11-15T06:25:05.263Z,95174.88
2022-11-15T06:27:57.716Z,95172.97
2022-11-15T06:30:47.934Z,95164.78
2022-11-15T06:33:37.809Z,95170.78
2022-11-15T06:36:24.899Z,95167.44
2022-11-15T06:39:12.075Z,95155.72
2022-11-15T06:41:59.113Z,95153.47
2022-11-15T06:44:46.222Z,95152.16
2022-11-15T06:47:33.328Z,95143.97
2022-11-15T06:50:20.614Z,95143.16
2022-11-15T06:53:07.616Z,95135.28
2022-11-15T06:55:55.822Z,95129.16
2022-11-15T06:58:43.133Z,95123.16
2022-11-15T07:01:30.882Z,95126.59
2022-11-15T07:04:18.418Z,95120.16
2022-11-15T07:07:05.650Z,95121.25
2022-11-15T07:09:52.864Z,95086.16
2022-11-15T07:12:40.221Z,95103.88
2022-11-15T07:15:28.136Z,95103.53
2022-11-15T07:18:16.029Z,95099.22
2022-11-15T07:21:07.711Z,95094.06
2022-11-15T07:23:55.201Z,95105.03
2022-11-15T07:26:42.344Z,95096.69
2022-11-15T07:29:29.538Z,95105.13
2022-11-15T07:32:16.825Z,95101.38
2022-11-15T07:35:03.827Z,95100.22
2022-11-15T07:38:02.435Z,95098.34
2022-11-15T07:40:59.128Z,95091.81
2022-11-15T07:43:46.436Z,95094.56
2022-11-15T07:46:34.054Z,95101.03
2022-11-15T07:49:21.297Z,95090.94
2022-11-15T07:52:08.528Z,95092.28
2022-11-15T07:54:56.033Z,95104.41
2022-11-15T07:57:43.003Z,95091.09
2022-11-15T08:00:31.680Z,95103.53
2022-11-15T08:03:19.149Z,95098.88
2022-11-15T08:06:07.280Z,95100.00
2022-11-15T08:08:54.480Z,95096.56
2022-11-15T08:11:41.425Z,95095.00
2022-11-15T08:14:28.984Z,95075.50
2022-11-15T08:17:18.942Z,95084.94
2022-11-15T08:20:06.581Z,95078.41
2022-11-15T08:22:54.091Z,95078.50
2022-11-15T08:25:41.993Z,95074.63
2022-11-15T08:28:29.267Z,95069.69
2022-11-15T08:31:19.042Z,95069.69
2022-11-15T08:34:07.417Z,95064.72
2022-11-15T08:36:54.918Z,95060.84
2022-11-15T08:39:42.235Z,95056.28
2022-11-15T08:42:31.527Z,95054.72
2022-11-15T08:45:19.098Z,95060.72
2022-11-15T08:48:07.497Z,95050.09
2022-11-15T08:50:58.545Z,95056.63
2022-11-15T08:53:45.696Z,95053.53
2022-11-15T08:56:33.013Z,95051.97
2022-11-15T08:59:20.438Z,95047.78
2022-11-15T09:02:08.522Z,95043.13
2022-11-15T09:04:55.794Z,95032.81
2022-11-15T09:07:43.077Z,95039.50
2022-11-15T09:10:30.362Z,95039.94
2022-11-15T09:13:17.961Z,95031.97
2022-11-15T09:16:05.675Z,95040.34
2022-11-15T09:18:52.843Z,95026.28
2022-11-15T09:21:40.102Z,95028.84
2022-11-15T09:24:27.394Z,95031.31
2022-11-15T09:27:14.892Z,95032.00
2022-11-15T09:30:02.479Z,95025.81
2022-11-15T09:32:49.930Z,95021.13
2022-11-15T09:35:37.369Z,95013.63
2022-11-15T09:38:24.368Z,95016.00
2022-11-15T09:41:14.790Z,95012.56
2022-11-15T09:44:38.771Z,95013.03
2022-11-15T09:47:34.563Z,95012.84
2022-11-15T09:50:37.274Z,94994.88
2022-11-15T09:53:06.309Z,95008.16
2022-11-15T09:55:46.760Z,95005.31
2022-11-15T09:58:24.738Z,95008.38
2022-11-15T10:00:55.296Z,94996.09
2022-11-15T10:03:32.707Z,95007.63
2022-11-15T10:06:05.834Z,94990.78
2022-11-15T10:09:07.985Z,94994.66
2022-11-15T10:11:39.763Z,94993.03
2022-11-15T10:14:21.645Z,94992.03
2022-11-15T10:16:56.106Z,94998.22
2022-11-15T10:19:34.138Z,94996.53
2022-11-15T10:22:24.100Z,94998.00
2022-11-15T10:25:02.489Z,95001.78
2022-11-15T10:27:32.004Z,94992.25
2022-11-15T10:30:00.769Z,94989.59
2022-11-15T10:32:38.043Z,94985.50
2022-11-15T10:35:30.706Z,94984.72
2022-11-15T10:38:17.462Z,94979.06
2022-11-15T10:43:31.824Z,94977.53
2022-11-15T10:46:45.621Z,94971.75
2022-11-15T10:49:23.150Z,94974.09
2022-11-15T10:52:01.026Z,94966.44
2022-11-15T10:54:36.150Z,94981.16
2022-11-15T10:57:14.253Z,94973.06
2022-11-15T10:59:48.923Z,94967.16
2022-11-15T11:02:59.192Z,94970.38
2022-11-15T11:05:43.092Z,94964.47
2022-11-15T11:08:12.544Z,94966.16
2022-11-15T11:10:57.182Z,94965.88
2022-11-15T11:13:41.057Z,94961.78
2022-11-15T11:16:17.212Z,94961.56
2022-11-15T11:19:09.976Z,94953.22
2022-11-15T11:21:56.001Z,94950.22
2022-11-15T11:24:33.732Z,94951.56
2022-11-15T11:27:40.892Z,94947.44
2022-11-15T11:30:25.063Z,94948.38
2022-11-15T11:33:29.781Z,94946.59
2022-11-15T11:36:26.208Z,94938.81
2022-11-15T11:39:16.357Z,94938.13
2022-11-15T11:42:06.259Z,94922.50
2022-11-15T11:44:47.367Z,94924.59
2022-11-15T11:47:35.282Z,94925.44
2022-11-15T11:50:30.523Z,94915.06
2022-11-15T11:53:06.808Z,94931.63
2022-11-15T11:55:55.579Z,94919.19
2022-11-15T11:58:42.031Z,94930.69
2022-11-15T12:01:34.159Z,94922.03
2022-11-15T12:04:18.346Z,94920.22
2022-11-15T12:06:51.023Z,94911.53
2022-11-15T12:09:45.853Z,94911.97
2022-11-15T12:12:49.046Z,94897.63
2022-11-15T12:15:30.086Z,94890.19
2022-11-15T12:18:00.096Z,94905.72
2022-11-15T12:20:34.720Z,94903.81
2022-11-15T12:23:36.172Z,94898.94
2022-11-15T12:26:19.177Z,94896.28
2022-11-15T12:29:06.314Z,94890.59
2022-11-15T12:31:36.391Z,94885.38
2022-11-15T12:34:22.184Z,94876.59
2022-11-15T12:36:52.843Z,94881.56
2022-11-15T12:39:22.454Z,94876.22
2022-11-15T12:41:57.153Z,94871.69
2022-11-15T12:44:38.970Z,94883.88
2022-11-15T12:47:10.703Z,94872.91
2022-11-15T12:49:39.777Z,94866.38
2022-11-15T12:52:10.470Z,94866.03
2022-11-15T12:54:42.185Z,94866.78
2022-11-15T12:57:17.052Z,94858.78
2022-11-15T13:00:05.810Z,94855.03
2022-11-15T13:02:48.047Z,94856.56
2022-11-15T13:05:24.158Z,94852.44
2022-11-15T13:08:00.660Z,94846.19
2022-11-15T13:10:29.541Z,94847.22
2022-11-15T13:12:59.728Z,94845.44
2022-11-15T13:15:39.538Z,94836.69
2022-11-15T13:18:38.093Z,94817.09
2022-11-15T13:21:39.638Z,94830.50
2022-11-15T13:24:17.589Z,94817.38
2022-11-15T13:26:47.560Z,94814.59
2022-11-15T13:29:19.219Z,94817.38
2022-11-15T13:31:49.031Z,94814.09
2022-11-15T13:34:49.480Z,94808.50
2022-11-15T13:37:36.024Z,94803.63
2022-11-15T13:40:23.795Z,94799.16
2022-11-15T13:42:53.110Z,94797.63
2022-11-15T13:45:23.078Z,94787.81
2022-11-15T13:48:00.927Z,94774.09
2022-11-15T13:50:37.987Z,94769.44
2022-11-15T13:53:08.155Z,94780.69
2022-11-15T13:55:40.015Z,94781.63
2022-11-15T13:58:14.175Z,94780.19
